Time;durP1;ratioP1;P1;durP2;ratioP2;P2;SDS_P1;SDS_P2;PMS_P1;PMS_P2;Temp;Humidity;BMP_temperature;BMP_pressure;BME280_temperature;BME280_humidity;BME280_pressure;Samples;Min_cycle;Max_cycle;Signal;HPM_P1;HPM_P2
2022/05/13 00:01:37;;;;;;;10.30;2.15;;;7.90;99.90;;;;;;5010290;28;20729;-82
2022/05/13 00:04:06;;;;;;;10.07;2.17;;;7.80;99.90;;;;;;4993251;28;20389;-82
2022/05/13 00:06:34;;;;;;;12.17;2.67;;;7.70;99.90;;;;;;4993019;28;20388;-82
2022/05/13 00:09:03;;;;;;;8.45;2.00;;;7.70;99.90;;;;;;4993230;28;20385;-83
2022/05/13 00:11:30;;;;;;;11.43;2.30;;;7.80;99.90;;;;;;5007257;28;20997;-82
2022/05/13 00:13:58;;;;;;;10.00;2.28;;;7.70;99.90;;;;;;4993098;28;20393;-82
2022/05/13 00:16:27;;;;;;;9.93;2.20;;;7.80;99.90;;;;;;4993981;28;20890;-82
2022/05/13 00:18:55;;;;;;;12.13;1.83;;;7.70;99.90;;;;;;4993000;28;20419;-82
2022/05/13 00:21:23;;;;;;;9.15;1.95;;;7.70;99.90;;;;;;5007577;28;20412;-82
2022/05/13 00:23:51;;;;;;;10.85;1.98;;;7.70;99.90;;;;;;4993786;28;20392;-81
2022/05/13 00:26:18;;;;;;;10.93;2.20;;;7.60;99.90;;;;;;5010198;28;20803;-81
2022/05/13 00:28:46;;;;;;;7.97;2.00;;;7.50;99.90;;;;;;5010791;28;20511;-83
2022/05/13 00:31:15;;;;;;;11.45;2.03;;;7.60;99.90;;;;;;5009781;28;20498;-82
2022/05/13 00:33:42;;;;;;;9.82;2.28;;;7.60;99.90;;;;;;5010602;28;20391;-82
2022/05/13 00:36:10;;;;;;;11.35;2.58;;;7.60;99.90;;;;;;5009520;28;20430;-82
2022/05/13 00:38:38;;;;;;;11.57;2.67;;;7.50;99.90;;;;;;5010437;28;20410;-82
2022/05/13 00:41:05;;;;;;;8.98;1.95;;;7.40;99.90;;;;;;5010133;28;20426;-83
2022/05/13 00:43:53;;;;;;;11.07;2.92;;;7.50;99.90;;;;;;5008562;28;20426;-82
2022/05/13 00:46:22;;;;;;;10.18;2.20;;;7.40;99.90;;;;;;5007599;28;20418;-82
2022/05/13 00:48:50;;;;;;;11.18;2.38;;;7.40;99.90;;;;;;4992261;28;20404;-82
2022/05/13 00:51:27;;;;;;;13.45;2.50;;;7.30;99.90;;;;;;5004341;28;20961;-82
2022/05/13 00:53:57;;;;;;;11.17;2.27;;;7.50;99.90;;;;;;5005873;28;20931;-82
2022/05/13 00:56:25;;;;;;;7.63;2.10;;;7.30;99.90;;;;;;4991170;28;20380;-82
2022/05/13 00:58:58;;;;;;;10.98;2.20;;;7.40;99.90;;;;;;4998097;28;20488;-82
2022/05/13 01:01:26;;;;;;;10.00;2.15;;;7.30;99.90;;;;;;5008711;28;20387;-82
2022/05/13 01:04:01;;;;;;;7.95;2.03;;;7.30;99.90;;;;;;5011045;28;20460;-82
2022/05/13 01:06:29;;;;;;;9.48;2.50;;;7.30;99.90;;;;;;5010386;28;20438;-82
2022/05/13 01:08:57;;;;;;;10.82;2.25;;;7.40;99.90;;;;;;5009719;28;20406;-81
2022/05/13 01:11:29;;;;;;;11.63;2.10;;;7.30;99.90;;;;;;5010365;28;20448;-82
2022/05/13 01:14:03;;;;;;;8.63;1.70;;;7.30;99.90;;;;;;5009587;28;20902;-82
2022/05/13 01:18:05;;;;;;;10.38;2.20;;;7.30;99.90;;;;;;5002608;28;20403;-81
2022/05/13 01:19:20;;;;;;;7.95;1.80;;;7.30;99.90;;;;;;4994918;28;20392;-82
2022/05/13 01:21:48;;;;;;;12.53;2.50;;;7.20;99.90;;;;;;4998837;28;20389;-82
2022/05/13 01:24:18;;;;;;;13.48;2.53;;;7.20;99.90;;;;;;4998744;28;20407;-82
2022/05/13 01:26:46;;;;;;;12.45;2.10;;;7.20;99.90;;;;;;4998572;28;20389;-82
2022/05/13 01:29:14;;;;;;;10.00;2.03;;;7.10;99.90;;;;;;4998698;28;20396;-82
2022/05/13 01:31:44;;;;;;;10.07;1.88;;;7.10;99.90;;;;;;5011894;28;20395;-81
2022/05/13 01:34:15;;;;;;;10.32;2.05;;;7.20;99.90;;;;;;5000578;28;20396;-82
2022/05/13 01:36:43;;;;;;;10.75;2.25;;;7.30;99.90;;;;;;4998721;28;20729;-82
2022/05/13 01:39:11;;;;;;;10.95;1.90;;;7.20;99.90;;;;;;4997170;28;20475;-82
2022/05/13 01:41:39;;;;;;;9.95;2.00;;;7.20;99.90;;;;;;4998558;28;20400;-82
2022/05/13 01:44:07;;;;;;;9.82;2.05;;;7.10;99.90;;;;;;4998654;28;20618;-81
2022/05/13 01:46:36;;;;;;;10.50;2.20;;;7.10;99.90;;;;;;4998271;28;20388;-82
2022/05/13 01:49:03;;;;;;;10.50;1.70;;;7.10;99.90;;;;;;4998210;28;20408;-83
2022/05/13 01:51:32;;;;;;;11.30;2.25;;;7.10;99.90;;;;;;5008373;28;20412;-82
2022/05/13 01:54:00;;;;;;;9.80;1.90;;;7.10;99.90;;;;;;5017360;28;20482;-82
2022/05/13 01:56:28;;;;;;;11.65;1.90;;;7.10;99.90;;;;;;5017354;28;20390;-82
2022/05/13 01:58:55;;;;;;;10.73;2.27;;;7.10;99.90;;;;;;5017587;28;20414;-82
2022/05/13 02:01:23;;;;;;;11.52;2.03;;;7.20;99.90;;;;;;5000397;28;20397;-82
2022/05/13 02:03:51;;;;;;;11.52;2.75;;;7.00;99.90;;;;;;5017456;28;20399;-81
2022/05/13 02:06:22;;;;;;;8.70;2.00;;;7.00;99.90;;;;;;5015867;28;20792;-82
2022/05/13 02:08:52;;;;;;;8.65;2.03;;;7.00;99.90;;;;;;5000212;28;20395;-82
2022/05/13 02:11:21;;;;;;;12.05;2.17;;;6.90;99.90;;;;;;5017351;28;20394;-82
2022/05/13 02:13:51;;;;;;;12.55;2.45;;;6.80;99.90;;;;;;5016496;28;20821;-82
2022/05/13 02:16:19;;;;;;;11.10;1.70;;;6.90;99.90;;;;;;5015768;28;20398;-83
2022/05/13 02:18:47;;;;;;;9.65;1.90;;;6.90;99.90;;;;;;5017309;28;20391;-82
2022/05/13 02:21:17;;;;;;;9.25;2.08;;;6.90;99.90;;;;;;4999918;28;20482;-82
2022/05/13 02:23:45;;;;;;;10.77;2.25;;;6.90;99.90;;;;;;5016337;28;20387;-82
2022/05/13 02:26:16;;;;;;;11.75;2.00;;;6.90;99.90;;;;;;5017559;28;20393;-82
2022/05/13 02:28:44;;;;;;;8.43;1.70;;;6.80;99.90;;;;;;5017553;28;20727;-82
2022/05/13 02:31:12;;;;;;;10.30;2.00;;;6.90;99.90;;;;;;5014242;28;20392;-83
2022/05/13 02:33:41;;;;;;;9.32;1.90;;;6.90;99.90;;;;;;5013195;28;20395;-82
2022/05/13 02:36:11;;;;;;;8.77;1.85;;;6.80;99.90;;;;;;4996901;28;20478;-81
2022/05/13 02:38:39;;;;;;;11.30;2.33;;;6.80;99.90;;;;;;5012970;28;20391;-81
2022/05/13 02:41:12;;;;;;;11.70;1.60;;;6.80;99.90;;;;;;5012945;28;20387;-82
2022/05/13 02:43:50;;;;;;;9.50;1.88;;;6.80;99.90;;;;;;5013002;28;20470;-81
2022/05/13 02:46:24;;;;;;;7.18;1.63;;;6.80;99.90;;;;;;5011595;28;20395;-82
2022/05/13 02:48:53;;;;;;;10.43;2.17;;;6.80;99.90;;;;;;4994181;28;20463;-82
2022/05/13 02:51:21;;;;;;;7.55;1.90;;;6.80;99.90;;;;;;4993231;28;20431;-81
2022/05/13 02:53:50;;;;;;;11.05;2.22;;;6.80;99.90;;;;;;4994977;28;20449;-82
2022/05/13 02:56:18;;;;;;;10.52;2.08;;;6.70;99.90;;;;;;5009486;28;20384;-82
2022/05/13 02:58:46;;;;;;;8.27;1.92;;;6.90;99.90;;;;;;4993119;28;20389;-82
2022/05/13 03:01:15;;;;;;;9.60;2.30;;;6.70;99.90;;;;;;4983002;28;20895;-82
2022/05/13 03:03:46;;;;;;;11.02;2.00;;;6.80;99.90;;;;;;5000818;28;20745;-82
2022/05/13 03:06:14;;;;;;;8.35;1.80;;;6.70;99.90;;;;;;4994253;28;20472;-81
2022/05/13 03:08:42;;;;;;;10.63;2.17;;;6.70;99.90;;;;;;4992953;28;20404;-82
2022/05/13 03:11:09;;;;;;;8.48;1.73;;;6.70;99.90;;;;;;5009209;28;20390;-82
2022/05/13 03:13:37;;;;;;;11.52;1.90;;;6.70;99.90;;;;;;5008933;28;20899;-82
2022/05/13 03:16:08;;;;;;;6.22;1.83;;;6.70;99.90;;;;;;5008986;28;20455;-82
2022/05/13 03:18:38;;;;;;;9.73;1.70;;;6.70;99.90;;;;;;4994478;28;20432;-81
2022/05/13 03:21:08;;;;;;;11.80;2.10;;;6.70;99.90;;;;;;5006336;28;20411;-82
2022/05/13 03:23:35;;;;;;;8.07;1.70;;;6.70;99.90;;;;;;4999133;28;20389;-82
2022/05/13 03:26:04;;;;;;;9.30;2.00;;;6.70;99.90;;;;;;5009964;28;20399;-81
2022/05/13 03:28:32;;;;;;;5.72;1.52;;;6.80;99.90;;;;;;4995096;28;20488;-82
2022/05/13 03:31:00;;;;;;;8.85;1.90;;;6.80;99.90;;;;;;4993776;28;20479;-82
2022/05/13 03:33:29;;;;;;;7.53;2.03;;;6.80;99.90;;;;;;4998594;28;20463;-81
2022/05/13 03:35:56;;;;;;;6.88;1.63;;;6.80;99.90;;;;;;4993411;28;20408;-82
2022/05/13 03:38:24;;;;;;;8.90;1.88;;;6.80;99.90;;;;;;5002886;28;20388;-82
2022/05/13 03:40:52;;;;;;;10.88;1.90;;;6.80;99.90;;;;;;5012078;28;20877;-81
2022/05/13 03:43:21;;;;;;;9.38;2.10;;;6.80;99.90;;;;;;5011468;28;20445;-82
2022/05/13 03:45:49;;;;;;;7.53;1.60;;;6.80;99.90;;;;;;5011400;28;20398;-82
2022/05/13 03:48:17;;;;;;;6.90;1.65;;;6.90;99.90;;;;;;4993666;28;20483;-81
2022/05/13 03:50:45;;;;;;;8.55;1.60;;;6.90;99.90;;;;;;4993402;28;20393;-82
2022/05/13 03:53:14;;;;;;;6.22;1.80;;;6.90;99.90;;;;;;4993640;28;20439;-82
2022/05/13 03:55:42;;;;;;;10.10;1.83;;;7.00;99.90;;;;;;5002471;28;21031;-82
2022/05/13 03:58:10;;;;;;;7.00;1.60;;;7.00;99.90;;;;;;5008528;28;20486;-82
2022/05/13 04:00:41;;;;;;;7.53;1.52;;;7.00;99.90;;;;;;5011205;28;20395;-82
2022/05/13 04:03:09;;;;;;;7.50;1.65;;;7.10;99.90;;;;;;5005245;28;20483;-82
2022/05/13 04:11:10;;;;;;;6.13;1.60;;;7.20;99.90;;;;;;4993022;28;20428;-82
2022/05/13 04:16:24;;;;;;;6.45;1.50;;;7.20;99.90;;;;;;4996173;28;20463;-82
2022/05/13 04:18:53;;;;;;;6.32;1.38;;;7.30;99.90;;;;;;5012110;28;20387;-82
2022/05/13 04:21:24;;;;;;;6.78;1.60;;;7.30;99.90;;;;;;5010170;28;20425;-81
2022/05/13 04:23:54;;;;;;;6.88;1.60;;;7.40;99.90;;;;;;5006585;28;20404;-82
2022/05/13 04:26:22;;;;;;;8.23;1.40;;;7.40;99.90;;;;;;5009314;28;20395;-82
2022/05/13 04:28:52;;;;;;;8.95;1.80;;;7.40;99.90;;;;;;5010721;28;20395;-83
2022/05/13 04:31:23;;;;;;;6.22;1.40;;;7.50;99.90;;;;;;5011014;28;20384;-82
2022/05/13 04:33:52;;;;;;;6.83;1.63;;;7.50;99.90;;;;;;4984618;28;20506;-81
2022/05/13 04:36:21;;;;;;;3.75;1.30;;;7.50;99.90;;;;;;4996496;28;20415;-83
2022/05/13 04:38:49;;;;;;;5.05;1.30;;;7.60;99.90;;;;;;5007341;28;20439;-83
2022/05/13 04:44:05;;;;;;;6.90;1.40;;;7.70;99.90;;;;;;4992790;28;20527;-82
2022/05/13 04:46:32;;;;;;;5.05;1.48;;;7.70;99.90;;;;;;5007244;28;21021;-81
2022/05/13 04:49:00;;;;;;;6.15;1.52;;;7.80;99.90;;;;;;5007058;28;20411;-82
2022/05/13 04:51:28;;;;;;;6.63;1.50;;;7.80;99.90;;;;;;4997218;28;20389;-81
2022/05/13 04:53:58;;;;;;;5.65;1.48;;;7.90;99.90;;;;;;5004487;28;20418;-81
2022/05/13 04:56:27;;;;;;;5.72;1.52;;;7.90;99.90;;;;;;4991353;28;20948;-79
2022/05/13 04:58:55;;;;;;;6.10;1.30;;;7.90;99.90;;;;;;4989244;28;20393;-82
2022/05/13 05:01:23;;;;;;;5.13;1.60;;;8.00;99.90;;;;;;5002462;28;20414;-81
2022/05/13 05:03:51;;;;;;;6.95;1.50;;;8.00;99.90;;;;;;5009016;28;20434;-81
2022/05/13 05:06:20;;;;;;;4.88;1.45;;;8.10;99.90;;;;;;5009482;28;20785;-81
2022/05/13 05:08:50;;;;;;;7.65;1.70;;;8.20;99.90;;;;;;5010560;28;20406;-81
2022/05/13 05:11:18;;;;;;;6.47;1.30;;;8.20;99.90;;;;;;5011065;28;20391;-79
2022/05/13 05:13:49;;;;;;;4.88;1.50;;;8.20;99.90;;;;;;5010233;28;20410;-81
2022/05/13 05:16:19;;;;;;;5.43;1.40;;;8.20;99.90;;;;;;4993754;28;20399;-81
2022/05/13 05:18:47;;;;;;;5.38;1.25;;;8.40;99.90;;;;;;4992143;28;20460;-81
2022/05/13 05:21:14;;;;;;;7.38;1.60;;;8.40;99.90;;;;;;4982725;28;20396;-81
2022/05/13 05:23:43;;;;;;;7.13;1.27;;;8.50;99.90;;;;;;4990818;28;20813;-81
2022/05/13 05:26:11;;;;;;;5.97;1.23;;;8.50;99.90;;;;;;4991036;28;20392;-82
2022/05/13 05:28:40;;;;;;;5.32;1.38;;;8.60;99.90;;;;;;4992128;28;20403;-82
2022/05/13 05:31:11;;;;;;;4.93;1.37;;;8.60;99.90;;;;;;4994313;28;20412;-81
2022/05/13 05:33:40;;;;;;;6.15;1.42;;;8.60;99.90;;;;;;4998831;28;20431;-81
2022/05/13 05:36:08;;;;;;;5.63;1.30;;;8.70;99.90;;;;;;4998508;28;20917;-82
2022/05/13 05:38:37;;;;;;;7.78;1.20;;;8.80;99.90;;;;;;5006606;28;20506;-81
2022/05/13 05:41:04;;;;;;;6.93;1.60;;;8.80;99.90;;;;;;5009129;28;20387;-81
2022/05/13 05:43:34;;;;;;;6.20;1.53;;;8.80;99.90;;;;;;5009826;28;20402;-82
2022/05/13 05:46:01;;;;;;;7.60;1.30;;;9.00;99.90;;;;;;5006283;28;20401;-81
2022/05/13 05:48:29;;;;;;;4.90;1.23;;;9.00;99.90;;;;;;5009449;28;20410;-82
2022/05/13 05:50:58;;;;;;;3.95;1.23;;;9.00;99.90;;;;;;5007300;28;20401;-81
2022/05/13 05:59:03;;;;;;;6.37;1.20;;;9.10;99.90;;;;;;5008811;28;20390;-80
2022/05/13 06:01:31;;;;;;;6.60;1.25;;;9.20;99.90;;;;;;5007762;28;20520;-82
2022/05/13 06:03:59;;;;;;;8.60;1.38;;;9.30;99.90;;;;;;5007913;28;20426;-81
2022/05/13 06:06:26;;;;;;;5.45;1.50;;;9.30;99.90;;;;;;5010543;28;20387;-82
2022/05/13 06:08:55;;;;;;;8.32;1.20;;;9.50;99.90;;;;;;5012507;28;20441;-81
2022/05/13 06:11:23;;;;;;;5.22;1.02;;;9.40;99.90;;;;;;5007501;28;20483;-79
2022/05/13 06:13:53;;;;;;;6.25;1.35;;;9.40;99.90;;;;;;4995264;28;20459;-82
2022/05/13 06:16:22;;;;;;;5.15;1.20;;;9.60;99.90;;;;;;5009809;28;20393;-82
2022/05/13 06:18:51;;;;;;;6.88;1.25;;;9.60;99.90;;;;;;5006900;28;20393;-82
2022/05/13 06:21:18;;;;;;;5.90;1.38;;;9.50;99.90;;;;;;5011587;28;20486;-82
2022/05/13 06:23:47;;;;;;;3.80;1.05;;;9.60;99.90;;;;;;5012079;28;20394;-82
2022/05/13 06:26:15;;;;;;;6.65;1.13;;;9.70;99.90;;;;;;5012867;28;20383;-82
2022/05/13 06:28:43;;;;;;;5.50;1.10;;;9.70;99.90;;;;;;5000720;28;20776;-82
2022/05/13 06:31:11;;;;;;;5.68;1.08;;;9.70;99.90;;;;;;5012236;28;20482;-81
2022/05/13 06:33:39;;;;;;;5.68;1.20;;;9.70;99.90;;;;;;5011823;28;20880;-82
2022/05/13 06:36:07;;;;;;;5.78;1.30;;;9.80;99.90;;;;;;5012440;28;20995;-82
2022/05/13 06:38:35;;;;;;;4.03;1.00;;;9.80;99.90;;;;;;5010523;28;20410;-81
2022/05/13 06:41:03;;;;;;;5.07;1.25;;;9.80;99.90;;;;;;4994934;28;20381;-81
2022/05/13 06:43:32;;;;;;;4.90;1.08;;;10.00;99.90;;;;;;5011842;28;20399;-82
2022/05/13 06:45:59;;;;;;;3.85;1.00;;;10.10;99.90;;;;;;5011813;28;20391;-82
2022/05/13 06:48:27;;;;;;;6.43;1.00;;;10.00;99.90;;;;;;5011230;28;20399;-79
2022/05/13 06:50:55;;;;;;;6.47;1.13;;;10.10;99.90;;;;;;5011728;28;20395;-82
2022/05/13 06:53:23;;;;;;;2.65;1.10;;;10.30;99.90;;;;;;5007684;28;20488;-82
2022/05/13 06:55:51;;;;;;;5.20;1.27;;;10.20;99.90;;;;;;4995739;28;20439;-81
2022/05/13 06:58:19;;;;;;;5.20;0.98;;;10.30;99.90;;;;;;5000744;28;20883;-81
2022/05/13 07:00:47;;;;;;;7.30;1.42;;;10.40;99.90;;;;;;4991866;28;20404;-81
2022/05/13 07:03:18;;;;;;;5.03;1.00;;;10.40;99.90;;;;;;4993770;28;20455;-81
2022/05/13 07:05:47;;;;;;;4.45;1.13;;;10.40;99.90;;;;;;5007269;28;20405;-81
2022/05/13 07:08:15;;;;;;;5.03;1.13;;;10.40;99.90;;;;;;5005418;28;20483;-81
2022/05/13 07:10:45;;;;;;;4.82;0.80;;;10.40;99.90;;;;;;5002767;28;20396;-82
2022/05/13 07:13:14;;;;;;;3.50;1.00;;;10.40;99.90;;;;;;5008460;28;20459;-79
2022/05/13 07:15:43;;;;;;;6.03;1.20;;;10.40;99.90;;;;;;4992040;28;20432;-82
2022/05/13 07:18:11;;;;;;;3.80;0.90;;;10.40;99.90;;;;;;5006803;28;20395;-82
2022/05/13 07:20:39;;;;;;;7.20;1.10;;;10.60;99.90;;;;;;4999325;28;20764;-81
2022/05/13 07:23:07;;;;;;;5.68;1.20;;;10.80;99.90;;;;;;4996085;28;20849;-82
2022/05/13 07:25:35;;;;;;;3.47;0.98;;;10.80;99.90;;;;;;4993969;28;20829;-82
2022/05/13 07:28:03;;;;;;;5.47;1.13;;;10.90;99.90;;;;;;5003366;28;20389;-81
2022/05/13 07:30:30;;;;;;;6.10;1.10;;;10.80;99.90;;;;;;5011460;28;20402;-81
2022/05/13 07:32:58;;;;;;;3.90;1.00;;;10.90;99.90;;;;;;5011304;28;20395;-81
2022/05/13 07:35:27;;;;;;;3.92;1.10;;;10.90;99.90;;;;;;4994419;28;20905;-81
2022/05/13 07:37:55;;;;;;;4.25;0.90;;;10.90;99.90;;;;;;4992450;28;20409;-81
2022/05/13 07:43:10;;;;;;;3.45;0.95;;;10.90;99.90;;;;;;4993663;28;20397;-81
2022/05/13 07:45:38;;;;;;;4.22;1.10;;;10.90;99.90;;;;;;4983598;28;20749;-81
2022/05/13 07:48:07;;;;;;;4.35;0.90;;;11.10;99.90;;;;;;5007935;28;20403;-81
2022/05/13 07:50:35;;;;;;;5.13;1.00;;;11.20;99.90;;;;;;4995189;28;20438;-82
2022/05/13 07:53:04;;;;;;;5.07;1.30;;;11.20;99.90;;;;;;4995453;28;20439;-81
2022/05/13 07:55:32;;;;;;;3.53;0.90;;;11.20;99.90;;;;;;5012438;28;20455;-80
2022/05/13 07:57:59;;;;;;;4.35;1.00;;;11.10;99.90;;;;;;5011787;28;20389;-81
2022/05/13 08:00:29;;;;;;;4.00;1.17;;;11.00;99.90;;;;;;5012342;28;20467;-82
2022/05/13 08:03:10;;;;;;;5.37;0.80;;;10.80;99.90;;;;;;5012000;28;20387;-81
2022/05/13 08:05:45;;;;;;;3.95;0.95;;;10.70;99.90;;;;;;4988686;28;20874;-81
2022/05/13 08:08:20;;;;;;;3.03;0.70;;;10.70;99.90;;;;;;5007909;28;20504;-81
2022/05/13 08:10:54;;;;;;;2.70;0.90;;;10.70;99.90;;;;;;4991885;28;20431;-81
2022/05/13 08:13:24;;;;;;;2.90;0.90;;;10.80;99.90;;;;;;4993351;28;20409;-81
2022/05/13 08:15:52;;;;;;;5.28;1.00;;;10.90;99.90;;;;;;4991744;28;20468;-81
2022/05/13 08:18:21;;;;;;;3.92;0.98;;;11.10;99.90;;;;;;4981456;28;20498;-82
2022/05/13 08:20:50;;;;;;;3.25;0.90;;;11.30;99.90;;;;;;5011079;28;20391;-81
2022/05/13 08:23:18;;;;;;;3.30;0.90;;;11.20;99.90;;;;;;5012290;28;20387;-81
2022/05/13 08:25:47;;;;;;;2.03;0.80;;;11.30;99.90;;;;;;5012315;28;20395;-82
2022/05/13 08:28:17;;;;;;;4.85;1.05;;;11.30;99.90;;;;;;5010339;28;20388;-81
2022/05/13 08:30:45;;;;;;;6.43;1.00;;;11.20;99.90;;;;;;4991404;28;20389;-81
2022/05/13 08:33:13;;;;;;;3.67;0.80;;;11.30;99.90;;;;;;4991406;28;20775;-81
2022/05/13 08:35:48;;;;;;;4.18;0.82;;;11.20;99.90;;;;;;4992629;28;20389;-81
2022/05/13 08:38:27;;;;;;;3.72;0.80;;;11.10;99.90;;;;;;4992664;28;20389;-81
2022/05/13 08:41:07;;;;;;;4.10;0.80;;;11.20;99.90;;;;;;5010813;28;20446;-81
2022/05/13 08:43:37;;;;;;;3.80;0.82;;;11.20;99.90;;;;;;5011944;28;20395;-81
2022/05/13 08:46:17;;;;;;;3.50;0.80;;;11.20;99.90;;;;;;5011993;28;20391;-81
2022/05/13 08:48:50;;;;;;;2.65;0.85;;;11.40;99.90;;;;;;5000945;28;20474;-81
2022/05/13 08:51:35;;;;;;;3.72;1.10;;;11.50;99.90;;;;;;5003127;28;20478;-81
2022/05/13 08:54:10;;;;;;;6.20;1.08;;;11.50;99.90;;;;;;5003239;28;20433;-82
2022/05/13 08:56:38;;;;;;;4.35;0.98;;;11.30;99.90;;;;;;4992700;28;20913;-82
2022/05/13 08:59:19;;;;;;;4.00;0.95;;;11.40;99.90;;;;;;4992449;28;20475;-82
2022/05/13 09:01:55;;;;;;;3.67;0.98;;;11.50;99.90;;;;;;4992410;28;20476;-82
2022/05/13 09:04:38;;;;;;;3.03;0.70;;;11.80;99.90;;;;;;5007808;28;20436;-82
2022/05/13 09:07:12;;;;;;;2.85;0.90;;;12.00;99.90;;;;;;4990856;28;20392;-83
2022/05/13 09:09:43;;;;;;;4.53;0.90;;;11.90;99.90;;;;;;5003598;28;20441;-83
2022/05/13 09:12:37;;;;;;;4.70;0.80;;;11.80;99.90;;;;;;4994313;28;20395;-82
2022/05/13 09:15:44;;;;;;;4.53;0.82;;;11.90;99.90;;;;;;4991143;28;20409;-82
2022/05/13 09:18:33;;;;;;;3.43;0.80;;;12.00;99.90;;;;;;4992154;28;20381;-82
2022/05/13 09:21:19;;;;;;;4.38;0.90;;;12.10;99.90;;;;;;4996810;28;20422;-82
2022/05/13 09:23:47;;;;;;;4.35;0.90;;;12.20;99.90;;;;;;4994125;28;20395;-82
2022/05/13 09:26:19;;;;;;;3.77;0.80;;;12.20;99.90;;;;;;5011582;28;20877;-82
2022/05/13 09:29:11;;;;;;;2.13;0.70;;;12.10;99.90;;;;;;5010159;28;20449;-82
2022/05/13 09:32:02;;;;;;;8.35;1.00;;;12.00;99.90;;;;;;5011452;28;20426;-82
2022/05/13 09:34:46;;;;;;;4.75;0.70;;;11.90;99.90;;;;;;5011072;28;20522;-83
2022/05/13 09:37:23;;;;;;;2.42;1.00;;;11.90;99.90;;;;;;4994010;28;20391;-83
2022/05/13 09:40:11;;;;;;;3.28;0.80;;;12.10;99.90;;;;;;5010540;28;20809;-83
2022/05/13 09:42:48;;;;;;;3.28;0.70;;;12.30;99.90;;;;;;5014929;28;20391;-82
2022/05/13 09:45:25;;;;;;;3.05;0.90;;;12.30;99.90;;;;;;5014068;28;20793;-83
2022/05/13 09:48:18;;;;;;;2.95;0.90;;;12.40;99.90;;;;;;5015089;28;20419;-83
2022/05/13 09:50:55;;;;;;;2.90;0.77;;;12.60;99.90;;;;;;5015146;28;20753;-83
2022/05/13 09:53:23;;;;;;;3.38;0.77;;;12.60;99.90;;;;;;5015057;28;20394;-83
2022/05/13 09:55:56;;;;;;;3.45;0.90;;;12.40;99.90;;;;;;5013530;28;20490;-82
2022/05/13 09:58:34;;;;;;;3.97;0.70;;;12.40;99.90;;;;;;5013810;28;20792;-83
2022/05/13 10:01:06;;;;;;;4.65;0.95;;;12.40;99.90;;;;;;5013858;28;20390;-82
2022/05/13 10:03:38;;;;;;;3.92;0.80;;;12.50;99.90;;;;;;5013918;28;20805;-83
2022/05/13 10:06:09;;;;;;;3.45;0.77;;;12.60;99.90;;;;;;5013778;28;20422;-82
2022/05/13 10:08:52;;;;;;;5.00;0.90;;;12.80;99.90;;;;;;5013310;28;20404;-82
2022/05/13 10:14:34;;;;;;;6.00;0.90;;;13.00;99.90;;;;;;5013695;28;20411;-83
2022/05/13 10:17:24;;;;;;;3.15;0.70;;;12.80;99.90;;;;;;5013558;28;20402;-82
2022/05/13 10:20:04;;;;;;;3.42;0.80;;;12.50;99.90;;;;;;5013489;28;20936;-82
2022/05/13 10:22:55;;;;;;;2.95;0.80;;;12.40;99.90;;;;;;5013174;28;20459;-83
2022/05/13 10:25:55;;;;;;;3.40;0.73;;;12.30;99.90;;;;;;5014542;28;20902;-83
2022/05/13 10:28:35;;;;;;;2.83;0.73;;;12.30;99.90;;;;;;5001883;28;20407;-83
2022/05/13 10:31:21;;;;;;;4.13;1.00;;;12.40;99.90;;;;;;5013494;28;20403;-83
2022/05/13 10:34:22;;;;;;;2.60;0.70;;;12.40;99.90;;;;;;5014412;28;20417;-83
2022/05/13 10:37:05;;;;;;;5.57;1.00;;;12.40;99.90;;;;;;5008776;28;20825;-83
2022/05/13 10:39:46;;;;;;;3.10;0.80;;;12.60;99.90;;;;;;5013127;28;20391;-82
2022/05/13 10:42:25;;;;;;;3.38;0.88;;;12.60;99.90;;;;;;5013157;28;20422;-83
2022/05/13 10:45:19;;;;;;;4.90;0.80;;;12.60;99.90;;;;;;5013117;28;20445;-82
2022/05/13 10:48:04;;;;;;;2.80;0.70;;;12.50;99.90;;;;;;5012605;28;20943;-82
2022/05/13 10:51:02;;;;;;;3.85;0.98;;;12.40;99.90;;;;;;5012841;28;20401;-84
2022/05/13 10:53:51;;;;;;;3.17;0.80;;;12.30;99.90;;;;;;5013287;28;20399;-82
2022/05/13 10:56:53;;;;;;;2.80;0.80;;;12.20;99.90;;;;;;5013610;28;20465;-83
2022/05/13 10:59:20;;;;;;;5.30;0.98;;;12.20;99.90;;;;;;5013945;28;20414;-82
2022/05/13 11:02:17;;;;;;;2.15;0.85;;;12.20;99.90;;;;;;5013854;28;20387;-83
2022/05/13 11:04:52;;;;;;;5.80;0.90;;;12.30;99.90;;;;;;4981030;28;20387;-83
2022/05/13 11:08:01;;;;;;;3.72;0.90;;;12.60;99.90;;;;;;5012833;28;20397;-83
2022/05/13 11:10:44;;;;;;;2.47;0.60;;;13.00;99.90;;;;;;4982181;28;20448;-82
2022/05/13 11:13:27;;;;;;;3.05;0.85;;;13.30;99.90;;;;;;4994505;28;20417;-83
2022/05/13 11:16:38;;;;;;;2.67;0.60;;;13.30;99.90;;;;;;5003012;28;20386;-83
2022/05/13 11:19:27;;;;;;;4.63;0.90;;;13.10;99.90;;;;;;4984684;28;20483;-82
2022/05/13 11:21:58;;;;;;;2.65;0.75;;;12.90;99.90;;;;;;5013599;28;20394;-83
2022/05/13 11:28:00;;;;;;;3.67;0.70;;;12.80;99.90;;;;;;5013323;28;20394;-82
2022/05/13 11:30:58;;;;;;;4.10;0.73;;;12.70;99.90;;;;;;5013062;28;20394;-82
2022/05/13 11:34:05;;;;;;;3.20;0.73;;;12.70;99.90;;;;;;5012345;28;20402;-83
2022/05/13 11:36:47;;;;;;;4.93;0.80;;;12.70;99.90;;;;;;5006055;28;20431;-83
2022/05/13 11:39:59;;;;;;;3.35;0.73;;;12.60;99.90;;;;;;5000067;28;20455;-83
2022/05/13 11:43:20;;;;;;;4.07;0.90;;;12.70;99.90;;;;;;4975337;28;20977;-83
2022/05/13 11:46:01;;;;;;;4.93;0.73;;;12.70;99.90;;;;;;5012968;28;20474;-82
2022/05/13 11:48:35;;;;;;;2.53;0.70;;;12.70;99.90;;;;;;5012429;28;20395;-82
2022/05/13 11:51:11;;;;;;;3.45;0.90;;;12.70;99.90;;;;;;5003442;28;20900;-82
2022/05/13 11:53:42;;;;;;;3.13;0.70;;;12.70;99.90;;;;;;5002046;28;20463;-82
2022/05/13 11:56:31;;;;;;;5.17;0.80;;;12.70;99.90;;;;;;5004173;28;20891;-82
2022/05/13 11:59:21;;;;;;;1.92;0.68;;;12.60;99.90;;;;;;5001619;28;20891;-82
2022/05/13 12:01:49;;;;;;;5.10;0.70;;;12.60;99.90;;;;;;5002095;28;20394;-82
2022/05/13 12:04:17;;;;;;;3.85;0.75;;;12.70;99.90;;;;;;4992159;28;20400;-81
2022/05/13 12:06:50;;;;;;;4.82;1.10;;;12.90;99.90;;;;;;5009226;28;20474;-83
2022/05/13 12:09:37;;;;;;;5.57;1.00;;;13.00;99.90;;;;;;5006605;28;20585;-82
2022/05/13 12:12:41;;;;;;;4.38;0.80;;;13.30;99.90;;;;;;5004832;28;20967;-82
2022/05/13 12:15:24;;;;;;;5.20;0.90;;;13.30;99.90;;;;;;5006482;28;20408;-83
2022/05/13 12:18:03;;;;;;;4.68;1.00;;;13.50;99.90;;;;;;4992095;28;20915;-83
2022/05/13 12:20:58;;;;;;;2.40;0.70;;;13.90;99.90;;;;;;5004892;28;20387;-82
2022/05/13 12:23:57;;;;;;;3.50;0.65;;;14.10;99.90;;;;;;5008620;28;20441;-82
2022/05/13 12:26:51;;;;;;;2.45;0.77;;;14.10;99.90;;;;;;4990583;28;20393;-83
2022/05/13 12:29:27;;;;;;;2.95;0.80;;;14.00;99.90;;;;;;4991899;28;20965;-83
2022/05/13 12:31:55;;;;;;;2.70;0.73;;;13.80;99.90;;;;;;4994981;28;20396;-82
2022/05/13 12:37:57;;;;;;;4.32;0.98;;;13.80;99.90;;;;;;5007776;28;20400;-83
2022/05/13 12:40:34;;;;;;;5.13;0.77;;;14.20;99.90;;;;;;4991542;28;20391;-83
2022/05/13 12:43:31;;;;;;;2.13;0.73;;;14.60;99.90;;;;;;4992959;28;20385;-83
2022/05/13 12:46:01;;;;;;;4.55;0.75;;;14.60;99.90;;;;;;5007597;28;20389;-82
2022/05/13 12:48:29;;;;;;;3.58;0.82;;;14.40;99.90;;;;;;4991088;28;20443;-83
2022/05/13 12:51:10;;;;;;;3.90;0.70;;;14.30;99.90;;;;;;4993116;28;20815;-84
2022/05/13 12:53:50;;;;;;;4.40;0.80;;;14.30;99.90;;;;;;5007327;28;20411;-83
2022/05/13 12:56:36;;;;;;;2.35;0.70;;;14.40;99.90;;;;;;5007209;28;20391;-83
2022/05/13 12:59:34;;;;;;;1.60;0.77;;;14.70;99.90;;;;;;4994509;28;20494;-83
2022/05/13 13:02:04;;;;;;;4.63;1.10;;;14.80;99.90;;;;;;5009377;28;20395;-83
2022/05/13 13:04:41;;;;;;;4.63;0.80;;;14.80;99.90;;;;;;5011532;28;20395;-83
2022/05/13 13:07:11;;;;;;;1.87;0.70;;;14.40;99.90;;;;;;5011728;28;20449;-82
2022/05/13 13:09:45;;;;;;;3.90;0.80;;;14.20;99.90;;;;;;5010596;28;20877;-83
2022/05/13 13:12:34;;;;;;;3.72;0.73;;;14.00;99.90;;;;;;5010519;28;20391;-84
2022/05/13 13:15:35;;;;;;;5.90;0.77;;;14.10;99.90;;;;;;4996397;28;20928;-83
2022/05/13 13:18:08;;;;;;;2.70;0.70;;;14.20;99.90;;;;;;4994246;28;20482;-82
2022/05/13 13:20:58;;;;;;;3.70;0.70;;;14.00;99.90;;;;;;4993947;28;20514;-83
2022/05/13 13:23:32;;;;;;;3.25;0.68;;;13.80;99.90;;;;;;5004734;28;20404;-83
2022/05/13 13:26:02;;;;;;;5.57;0.80;;;13.80;99.90;;;;;;4999388;28;20482;-83
2022/05/13 13:28:40;;;;;;;4.68;0.82;;;13.60;99.90;;;;;;4998962;28;20521;-82
2022/05/13 13:31:15;;;;;;;2.53;0.70;;;13.60;99.90;;;;;;4992132;28;20403;-83
2022/05/13 13:33:53;;;;;;;3.00;0.75;;;13.60;99.90;;;;;;4999009;28;20393;-83
2022/05/13 13:36:24;;;;;;;3.25;0.80;;;13.60;99.90;;;;;;5007985;28;20417;-83
2022/05/13 13:38:54;;;;;;;4.45;0.93;;;13.60;99.90;;;;;;4991925;28;20447;-83
2022/05/13 13:41:29;;;;;;;4.07;0.88;;;13.60;99.90;;;;;;5006779;28;20397;-83
2022/05/13 13:43:59;;;;;;;3.33;1.00;;;13.60;99.90;;;;;;5005288;28;20478;-82
2022/05/13 13:46:46;;;;;;;4.32;0.90;;;13.60;99.90;;;;;;5010032;28;20417;-83
2022/05/13 13:49:35;;;;;;;3.65;0.70;;;13.90;99.90;;;;;;5010227;28;20395;-83
2022/05/13 13:52:17;;;;;;;3.78;0.77;;;13.80;99.90;;;;;;5011605;28;20391;-82
2022/05/13 13:54:58;;;;;;;4.32;0.60;;;13.70;99.90;;;;;;5010820;28;20411;-83